Terminal Aerodrome Forecast
Issued by NWS

Home | Current Version | Previous Version | Text Only | Print | Product List | Glossary On
Versions: 1 2 3 4 5 6 7 8 9 10 11 12 13 14 15
000
FTUS46 KPDT 131443 AAB
TAFBDN
TAF AMD
KBDN 131443Z 1315/1412 16005KT 6SM BR FEW002
      TEMPO 1315/1317 3SM BR BKN001
     FM131900 11004KT P6SM FEW250=

USA.gov is the U.S. government's official web portal to all federal, state and local government web resources and services.